createdAt,value
2023-03-16T00:01:35.081Z,3.53
2023-03-16T00:03:38.289Z,3.00
2023-03-16T00:05:41.293Z,3.67
2023-03-16T00:07:44.695Z,2.63
2023-03-16T00:09:52.257Z,3.47
2023-03-16T00:11:55.154Z,2.80
2023-03-16T00:13:58.718Z,3.93
2023-03-16T00:16:03.066Z,3.70
2023-03-16T00:18:06.258Z,2.57
2023-03-16T00:20:11.092Z,2.93
2023-03-16T00:22:14.876Z,2.80
2023-03-16T00:24:18.721Z,3.20
2023-03-16T00:26:23.337Z,2.50
2023-03-16T00:28:27.113Z,2.30
2023-03-16T00:30:30.393Z,3.00
2023-03-16T00:32:35.203Z,3.17
2023-03-16T00:34:38.128Z,3.23
2023-03-16T00:36:42.519Z,3.13
2023-03-16T00:38:45.717Z,3.37
2023-03-16T00:40:51.363Z,2.67
2023-03-16T00:42:56.087Z,3.03
2023-03-16T00:44:59.395Z,2.70
2023-03-16T00:47:03.493Z,2.87
2023-03-16T00:49:06.540Z,3.30
2023-03-16T00:51:13.144Z,2.37
2023-03-16T00:53:16.265Z,2.60
2023-03-16T00:55:19.371Z,2.60
2023-03-16T00:57:25.027Z,1.90
2023-03-16T00:59:31.006Z,2.63
2023-03-16T01:01:34.523Z,2.83
2023-03-16T01:03:37.548Z,3.10
2023-03-16T01:05:45.828Z,2.83
2023-03-16T01:07:48.790Z,2.50
2023-03-16T01:09:52.374Z,2.80
2023-03-16T01:11:55.923Z,2.70
2023-03-16T01:13:59.294Z,2.53
2023-03-16T01:16:04.141Z,2.30
2023-03-16T01:18:07.624Z,2.78
2023-03-16T01:20:15.636Z,2.30
2023-03-16T01:22:18.643Z,2.20
2023-03-16T01:24:21.702Z,2.50
2023-03-16T01:26:25.280Z,2.50
2023-03-16T01:28:30.369Z,2.30
2023-03-16T01:30:33.524Z,2.60
2023-03-16T01:32:38.203Z,2.50
2023-03-16T01:34:41.532Z,2.40
2023-03-16T01:36:45.332Z,2.30
2023-03-16T01:38:49.513Z,2.40
2023-03-16T01:40:54.410Z,2.20
2023-03-16T01:43:04.455Z,2.10
2023-03-16T01:45:43.907Z,2.27
2023-03-16T01:47:48.262Z,3.00
2023-03-16T01:49:55.155Z,2.37
2023-03-16T01:52:03.708Z,2.50
2023-03-16T01:54:14.609Z,2.85
2023-03-16T01:56:23.606Z,3.07
2023-03-16T01:58:26.908Z,2.90
2023-03-16T02:00:32.142Z,2.20
2023-03-16T02:02:58.225Z,3.70
2023-03-16T02:05:14.983Z,2.20
2023-03-16T02:07:19.383Z,2.63
2023-03-16T02:09:22.899Z,2.20
2023-03-16T02:11:26.662Z,2.80
2023-03-16T02:13:37.532Z,2.70
2023-03-16T02:15:40.995Z,2.00
2023-03-16T02:17:45.298Z,2.70
2023-03-16T02:19:57.268Z,2.10
2023-03-16T02:22:03.457Z,3.50
2023-03-16T02:24:08.095Z,2.83
2023-03-16T02:26:16.892Z,2.10
2023-03-16T02:28:24.388Z,2.83
2023-03-16T02:30:30.165Z,2.90
2023-03-16T02:32:38.980Z,2.80
2023-03-16T02:34:42.559Z,3.37
2023-03-16T02:36:46.274Z,2.60
2023-03-16T02:38:49.365Z,2.30
2023-03-16T02:40:59.871Z,2.37
2023-03-16T02:43:05.586Z,3.10
2023-03-16T02:45:12.855Z,2.77
2023-03-16T02:47:23.590Z,2.20
2023-03-16T02:49:28.809Z,2.60
2023-03-16T02:51:32.578Z,3.07
2023-03-16T02:53:35.907Z,2.50
2023-03-16T02:55:39.014Z,2.30
2023-03-16T02:57:42.064Z,2.40
2023-03-16T02:59:49.530Z,2.60
2023-03-16T03:01:52.600Z,2.60
2023-03-16T03:03:57.218Z,2.50
2023-03-16T03:06:02.495Z,2.27
2023-03-16T03:08:10.784Z,2.57
2023-03-16T03:10:14.419Z,2.13
2023-03-16T03:12:17.582Z,2.30
2023-03-16T03:14:20.615Z,2.10
2023-03-16T03:16:26.062Z,1.80
2023-03-16T03:18:33.784Z,2.40
2023-03-16T03:20:39.014Z,2.53
2023-03-16T03:22:42.500Z,2.13
2023-03-16T03:24:48.362Z,2.33
2023-03-16T03:26:52.073Z,2.30
2023-03-16T03:28:56.519Z,2.33
2023-03-16T03:30:59.469Z,2.10
2023-03-16T03:33:02.755Z,1.83
2023-03-16T03:35:06.873Z,2.40
2023-03-16T03:37:11.599Z,2.03
2023-03-16T03:39:16.897Z,2.40
2023-03-16T03:41:22.363Z,2.13
2023-03-16T03:43:25.767Z,2.07
2023-03-16T03:45:29.053Z,2.33
2023-03-16T03:47:32.455Z,2.10
2023-03-16T03:49:36.545Z,2.27
2023-03-16T03:51:41.086Z,2.00
2023-03-16T03:53:55.135Z,2.07
2023-03-16T03:56:11.336Z,2.00
2023-03-16T03:58:15.335Z,2.10
2023-03-16T04:00:20.915Z,2.43
2023-03-16T04:02:24.484Z,2.27
2023-03-16T04:04:30.410Z,2.07
2023-03-16T04:06:33.547Z,2.47
2023-03-16T04:08:36.747Z,2.20
2023-03-16T04:10:44.634Z,2.27
2023-03-16T04:12:47.770Z,2.77
2023-03-16T04:14:51.662Z,2.23
2023-03-16T04:16:54.906Z,2.00
2023-03-16T04:18:59.036Z,2.80
2023-03-16T04:21:02.096Z,2.03
2023-03-16T04:23:06.064Z,2.30
2023-03-16T04:25:11.916Z,1.63
2023-03-16T04:27:18.334Z,2.13
2023-03-16T04:29:22.739Z,2.22
2023-03-16T04:31:25.817Z,2.10
2023-03-16T04:33:29.188Z,1.93
2023-03-16T04:35:32.919Z,1.50
2023-03-16T04:37:35.867Z,1.60
2023-03-16T04:39:39.743Z,1.60
2023-03-16T04:41:43.046Z,1.90
2023-03-16T04:43:52.639Z,2.10
2023-03-16T04:45:57.978Z,1.80
2023-03-16T04:48:04.619Z,1.77
2023-03-16T04:50:10.448Z,1.37
2023-03-16T04:52:13.684Z,1.80
2023-03-16T04:54:17.321Z,2.00
2023-03-16T04:56:20.496Z,1.53
2023-03-16T04:58:29.614Z,1.97
2023-03-16T05:00:35.341Z,1.80
2023-03-16T05:02:53.663Z,1.60
2023-03-16T05:04:57.608Z,2.50
2023-03-16T05:07:02.450Z,1.30
2023-03-16T05:09:11.447Z,1.60
2023-03-16T05:11:15.851Z,1.50
2023-03-16T05:13:28.330Z,1.30
2023-03-16T05:15:36.005Z,1.70
2023-03-16T05:17:49.697Z,1.30
2023-03-16T05:19:52.947Z,1.40
2023-03-16T05:21:58.686Z,1.52
2023-03-16T05:24:01.923Z,1.83
2023-03-16T05:26:05.407Z,1.80
2023-03-16T05:28:11.596Z,1.67
2023-03-16T05:30:46.346Z,1.80
2023-03-16T05:32:57.041Z,2.10
2023-03-16T05:35:02.515Z,2.40
2023-03-16T05:37:06.271Z,2.10
2023-03-16T05:39:10.156Z,2.13
2023-03-16T05:41:18.320Z,2.13
2023-03-16T05:43:32.582Z,2.30
2023-03-16T05:45:36.023Z,2.30
2023-03-16T05:47:52.668Z,2.60
2023-03-16T05:49:55.766Z,2.93
2023-03-16T05:52:06.242Z,2.60
2023-03-16T05:54:11.090Z,3.00
2023-03-16T05:56:20.786Z,2.43
2023-03-16T05:58:23.765Z,2.70
2023-03-16T06:00:29.956Z,2.70
2023-03-16T06:02:44.659Z,2.80
2023-03-16T06:04:49.188Z,2.77
2023-03-16T06:06:52.171Z,3.00
2023-03-16T06:08:58.227Z,3.00
2023-03-16T06:11:04.209Z,3.70
2023-03-16T06:13:07.626Z,2.90
2023-03-16T06:15:11.797Z,3.40
2023-03-16T06:17:15.001Z,2.97
2023-03-16T06:19:18.850Z,4.10
2023-03-16T06:21:28.340Z,3.70
2023-03-16T06:23:35.525Z,3.43
2023-03-16T06:25:40.824Z,2.93
2023-03-16T06:27:44.963Z,3.03
2023-03-16T06:29:52.517Z,2.80
2023-03-16T06:31:55.689Z,2.75
2023-03-16T06:33:59.620Z,4.45
2023-03-16T06:36:02.803Z,5.43
2023-03-16T06:38:11.527Z,6.87
2023-03-16T06:40:31.085Z,10.40
2023-03-16T06:42:34.081Z,9.63
2023-03-16T06:44:37.683Z,5.20
2023-03-16T06:46:45.172Z,4.50
2023-03-16T06:48:48.508Z,3.40
2023-03-16T06:50:51.543Z,3.30
2023-03-16T06:52:59.034Z,3.30
2023-03-16T06:55:03.750Z,3.33
2023-03-16T06:57:09.170Z,3.05
2023-03-16T06:59:12.422Z,3.43
2023-03-16T07:01:15.681Z,3.43
2023-03-16T07:03:19.399Z,3.07
2023-03-16T07:05:28.637Z,4.10
2023-03-16T07:07:32.178Z,2.78
2023-03-16T07:09:38.228Z,2.97
2023-03-16T07:11:43.423Z,2.78
2023-03-16T07:13:46.421Z,2.80
2023-03-16T07:15:52.193Z,2.40
2023-03-16T07:17:56.633Z,1.93
2023-03-16T07:20:00.365Z,2.70
2023-03-16T07:22:04.097Z,2.50
2023-03-16T07:24:13.060Z,2.20
2023-03-16T07:26:18.332Z,2.70
2023-03-16T07:28:29.710Z,1.90
2023-03-16T07:30:35.067Z,2.13
2023-03-16T07:32:38.284Z,2.20
2023-03-16T07:34:42.547Z,2.53
2023-03-16T07:36:45.993Z,2.50
2023-03-16T07:38:48.898Z,2.13
2023-03-16T07:40:53.213Z,2.40
2023-03-16T07:42:58.962Z,2.30
2023-03-16T07:45:07.781Z,2.30
2023-03-16T07:47:13.946Z,2.20
2023-03-16T07:49:18.513Z,2.50
2023-03-16T07:51:24.396Z,2.47
2023-03-16T07:53:28.514Z,2.30
2023-03-16T07:55:48.416Z,2.00
2023-03-16T07:57:51.384Z,2.60
2023-03-16T08:00:03.011Z,2.23
2023-03-16T08:02:23.223Z,2.30
2023-03-16T08:04:27.112Z,2.10
2023-03-16T08:06:30.223Z,2.53
2023-03-16T08:08:33.714Z,2.00
2023-03-16T08:10:37.430Z,2.10
2023-03-16T08:12:47.313Z,2.72
2023-03-16T08:14:50.714Z,1.90
2023-03-16T08:17:03.226Z,1.80
2023-03-16T08:19:08.678Z,1.90
2023-03-16T08:21:11.971Z,1.97
2023-03-16T08:23:15.650Z,2.17
2023-03-16T08:25:20.104Z,1.87
2023-03-16T08:27:36.268Z,2.23
2023-03-16T08:29:41.781Z,1.67
2023-03-16T08:31:49.421Z,1.67
2023-03-16T08:34:02.101Z,2.30
2023-03-16T08:36:11.737Z,1.70
2023-03-16T08:38:17.170Z,1.30
2023-03-16T08:40:29.250Z,1.77
2023-03-16T08:42:34.640Z,1.90
2023-03-16T08:44:40.037Z,1.77
2023-03-16T08:46:43.436Z,1.60
2023-03-16T08:48:46.478Z,1.43
2023-03-16T08:50:51.805Z,1.73
2023-03-16T08:52:56.341Z,1.63
2023-03-16T08:55:03.423Z,1.77
2023-03-16T08:57:06.986Z,1.70
2023-03-16T08:59:23.695Z,1.70
2023-03-16T09:01:34.013Z,1.73
2023-03-16T09:03:38.350Z,1.23
2023-03-16T09:05:42.433Z,1.60
2023-03-16T09:07:47.656Z,1.80
2023-03-16T09:09:53.479Z,1.60
2023-03-16T09:11:57.029Z,1.50
2023-03-16T09:14:00.161Z,1.63
2023-03-16T09:16:03.862Z,1.20
2023-03-16T09:18:07.241Z,1.60
2023-03-16T09:20:22.180Z,1.57
2023-03-16T09:22:35.644Z,1.70
2023-03-16T09:24:38.713Z,1.67
2023-03-16T09:26:43.957Z,1.77
2023-03-16T09:28:46.983Z,1.97
2023-03-16T09:30:50.539Z,1.97
2023-03-16T09:32:53.493Z,1.70
2023-03-16T09:34:56.444Z,1.63
2023-03-16T09:36:59.332Z,1.83
2023-03-16T09:39:03.298Z,2.00
2023-03-16T09:41:09.879Z,1.60
2023-03-16T09:43:27.466Z,1.53
2023-03-16T09:45:36.497Z,1.87
2023-03-16T09:47:39.801Z,1.60
2023-03-16T09:49:45.473Z,1.80
2023-03-16T09:51:52.182Z,1.60
2023-03-16T09:54:00.282Z,2.17
2023-03-16T09:56:05.094Z,2.00
2023-03-16T09:58:13.373Z,1.63
2023-03-16T10:00:21.393Z,1.70
2023-03-16T10:02:46.706Z,1.60
2023-03-16T10:04:54.742Z,1.90
2023-03-16T10:07:04.482Z,1.77
2023-03-16T10:09:18.598Z,1.60
2023-03-16T10:11:33.056Z,1.83
2023-03-16T10:13:39.418Z,2.00
2023-03-16T10:15:44.092Z,2.33
2023-03-16T10:17:50.134Z,2.03
2023-03-16T10:19:58.216Z,1.53
2023-03-16T10:22:04.018Z,1.80
2023-03-16T10:24:16.847Z,2.13
2023-03-16T10:26:24.085Z,1.60
2023-03-16T10:28:28.992Z,1.40
2023-03-16T10:30:37.425Z,1.63
2023-03-16T10:32:41.786Z,1.63
2023-03-16T10:34:49.294Z,1.43
2023-03-16T10:36:53.198Z,1.50
2023-03-16T10:38:59.685Z,1.53
2023-03-16T10:41:02.709Z,1.30
2023-03-16T10:43:10.379Z,1.90
2023-03-16T10:45:25.354Z,1.40
2023-03-16T10:47:31.835Z,1.53
2023-03-16T10:49:41.976Z,1.60
2023-03-16T10:51:44.871Z,1.90
2023-03-16T10:53:49.173Z,2.00
2023-03-16T10:55:58.718Z,1.60
2023-03-16T10:58:02.336Z,2.20
2023-03-16T11:00:20.552Z,1.60
2023-03-16T11:02:27.691Z,1.57
2023-03-16T11:04:33.333Z,1.50
2023-03-16T11:06:37.901Z,2.00
2023-03-16T11:08:41.617Z,1.83
2023-03-16T11:10:55.690Z,1.73
2023-03-16T11:13:13.700Z,1.30
2023-03-16T11:15:25.814Z,1.83
2023-03-16T11:17:35.171Z,2.03
2023-03-16T11:19:41.672Z,1.50
2023-03-16T11:21:51.490Z,1.50
2023-03-16T11:23:56.714Z,1.73
2023-03-16T11:26:02.409Z,2.00
2023-03-16T11:28:13.103Z,1.90
2023-03-16T11:30:20.048Z,1.67
2023-03-16T11:32:26.433Z,1.40
2023-03-16T11:34:31.681Z,1.70
2023-03-16T11:36:41.828Z,1.17
2023-03-16T11:38:52.174Z,1.30
2023-03-16T11:40:59.250Z,1.50
2023-03-16T11:43:10.878Z,1.53
2023-03-16T11:45:20.570Z,1.60
2023-03-16T11:47:32.884Z,1.60
2023-03-16T11:49:49.545Z,1.60
2023-03-16T11:52:00.048Z,1.27
2023-03-16T11:54:15.657Z,1.40
2023-03-16T11:56:30.169Z,1.70
2023-03-16T11:58:41.637Z,1.10
2023-03-16T12:00:52.593Z,1.37
2023-03-16T12:03:15.123Z,1.57
2023-03-16T12:05:36.508Z,2.63
2023-03-16T12:07:49.471Z,1.70
2023-03-16T12:10:24.221Z,1.80
2023-03-16T12:12:38.632Z,1.77
2023-03-16T12:14:44.244Z,1.80
2023-03-16T12:16:51.462Z,1.90
2023-03-16T12:18:57.904Z,3.23
2023-03-16T12:21:03.008Z,1.23
2023-03-16T12:23:09.401Z,2.33
2023-03-16T12:25:20.523Z,1.20
2023-03-16T12:27:27.083Z,1.23
2023-03-16T12:29:35.704Z,1.83
2023-03-16T12:31:43.176Z,1.30
2023-03-16T12:33:54.948Z,1.40
2023-03-16T12:36:02.826Z,1.20
2023-03-16T12:38:20.563Z,1.83
2023-03-16T12:40:29.946Z,1.20
2023-03-16T12:42:42.435Z,1.80
2023-03-16T12:44:49.965Z,1.40
2023-03-16T12:46:57.749Z,1.10
2023-03-16T12:49:02.488Z,1.47
2023-03-16T12:51:06.172Z,1.60
2023-03-16T12:53:09.114Z,1.60
2023-03-16T12:55:16.123Z,1.37
2023-03-16T12:57:19.520Z,1.23
2023-03-16T12:59:25.715Z,1.47
2023-03-16T13:01:31.227Z,1.60
2023-03-16T13:03:34.764Z,1.50
2023-03-16T13:05:38.735Z,1.50
2023-03-16T13:07:48.479Z,1.40
2023-03-16T13:09:55.136Z,1.53
2023-03-16T13:11:58.150Z,1.37
2023-03-16T13:14:12.744Z,1.30
2023-03-16T13:16:28.460Z,1.57
2023-03-16T13:18:37.019Z,1.23
2023-03-16T13:20:52.544Z,1.57
2023-03-16T13:23:10.425Z,1.57
2023-03-16T13:25:18.046Z,1.37
2023-03-16T13:27:24.213Z,5.53
2023-03-16T13:29:28.740Z,2.63
2023-03-16T13:31:39.161Z,1.37
2023-03-16T13:33:42.434Z,1.70
2023-03-16T13:35:47.153Z,1.43
2023-03-16T13:37:50.700Z,1.10
2023-03-16T13:39:55.314Z,1.20
2023-03-16T13:42:04.694Z,1.60
2023-03-16T13:44:14.604Z,1.17
2023-03-16T13:49:58.364Z,1.50
2023-03-16T13:52:01.338Z,1.50
2023-03-16T13:54:20.627Z,1.33
2023-03-16T13:56:27.196Z,1.37
2023-03-16T13:58:34.909Z,1.50
2023-03-16T14:00:38.907Z,1.47
2023-03-16T14:02:43.535Z,2.70
2023-03-16T14:04:47.030Z,1.37
2023-03-16T14:06:56.346Z,1.40
2023-03-16T14:09:01.352Z,1.20
2023-03-16T14:11:04.838Z,1.50
2023-03-16T14:13:09.469Z,1.40
2023-03-16T14:15:14.070Z,1.40
2023-03-16T14:17:19.443Z,1.58
2023-03-16T14:19:24.486Z,1.73
2023-03-16T14:21:29.257Z,1.77
2023-03-16T14:23:35.952Z,1.70
2023-03-16T14:25:38.935Z,1.50
2023-03-16T14:27:46.849Z,2.00
2023-03-16T14:29:55.710Z,1.37
2023-03-16T14:32:00.081Z,1.48
2023-03-16T14:34:05.236Z,1.65
2023-03-16T14:36:12.961Z,1.95
2023-03-16T14:38:23.578Z,1.50
2023-03-16T14:40:30.797Z,1.40
2023-03-16T14:42:34.678Z,1.52
2023-03-16T14:44:38.373Z,1.77
2023-03-16T14:46:42.308Z,2.03
2023-03-16T14:48:45.768Z,1.55
2023-03-16T14:50:54.540Z,2.47
2023-03-16T14:52:58.058Z,1.85
2023-03-16T14:55:03.697Z,1.52
2023-03-16T14:57:08.117Z,1.20
2023-03-16T14:59:11.298Z,1.67
2023-03-16T15:01:15.936Z,2.10
2023-03-16T15:03:18.830Z,1.40
2023-03-16T15:05:23.791Z,6.15
2023-03-16T15:07:29.622Z,1.90
2023-03-16T15:09:35.774Z,1.95
2023-03-16T15:11:38.703Z,1.90
2023-03-16T15:14:04.291Z,1.35
2023-03-16T15:16:08.952Z,1.60
2023-03-16T15:18:12.098Z,1.70
2023-03-16T15:20:17.029Z,1.60
2023-03-16T15:22:23.759Z,1.57
2023-03-16T15:24:29.253Z,1.60
2023-03-16T15:26:32.794Z,2.00
2023-03-16T15:28:35.623Z,1.20
2023-03-16T15:30:40.696Z,1.23
2023-03-16T15:32:43.617Z,1.50
2023-03-16T15:34:47.244Z,1.52
2023-03-16T15:36:50.229Z,1.60
2023-03-16T15:38:55.080Z,1.15
2023-03-16T15:40:58.125Z,1.50
2023-03-16T15:43:01.792Z,1.53
2023-03-16T15:45:10.874Z,1.80
2023-03-16T15:47:15.456Z,1.23
2023-03-16T15:49:18.333Z,1.23
2023-03-16T15:51:23.038Z,1.50
2023-03-16T15:53:31.294Z,0.80
2023-03-16T15:55:37.666Z,1.37
2023-03-16T15:57:41.287Z,1.17
2023-03-16T15:59:45.025Z,1.45
2023-03-16T16:01:48.724Z,1.30
2023-03-16T16:03:54.204Z,1.50
2023-03-16T16:05:57.234Z,1.08
2023-03-16T16:08:00.920Z,1.03
2023-03-16T16:10:04.251Z,1.13
2023-03-16T16:12:11.406Z,1.60
2023-03-16T16:14:17.313Z,1.50
2023-03-16T16:16:21.087Z,1.90
2023-03-16T16:18:30.284Z,1.67
2023-03-16T16:20:34.525Z,1.70
2023-03-16T16:22:39.060Z,1.40
2023-03-16T16:24:41.986Z,1.60
2023-03-16T16:26:53.766Z,1.40
2023-03-16T16:28:59.394Z,1.20
2023-03-16T16:31:02.669Z,1.43
2023-03-16T16:33:20.532Z,1.60
2023-03-16T16:35:25.923Z,1.30
2023-03-16T16:37:30.634Z,1.27
2023-03-16T16:39:34.043Z,1.50
2023-03-16T16:41:38.360Z,1.52
2023-03-16T16:43:45.327Z,1.50
2023-03-16T16:45:49.458Z,1.50
2023-03-16T16:47:55.248Z,1.77
2023-03-16T16:49:58.246Z,1.50
2023-03-16T16:52:01.555Z,1.60
2023-03-16T16:54:14.910Z,1.80
2023-03-16T16:56:19.820Z,2.10
2023-03-16T16:58:24.909Z,1.77
2023-03-16T17:00:29.326Z,1.50
2023-03-16T17:02:43.580Z,1.50
2023-03-16T17:04:46.681Z,1.90
2023-03-16T17:06:51.358Z,1.43
2023-03-16T17:08:55.172Z,1.43
2023-03-16T17:11:00.072Z,1.50
2023-03-16T17:13:03.003Z,1.20
2023-03-16T17:15:20.337Z,1.37
2023-03-16T17:17:23.314Z,1.77
2023-03-16T17:19:28.043Z,1.47
2023-03-16T17:21:32.487Z,1.10
2023-03-16T17:23:37.082Z,1.53
2023-03-16T17:25:39.973Z,1.93
2023-03-16T17:27:45.565Z,1.95
2023-03-16T17:29:48.457Z,2.10
2023-03-16T17:31:51.630Z,1.80
2023-03-16T17:33:55.380Z,1.60
2023-03-16T17:35:59.111Z,1.65
2023-03-16T17:38:02.065Z,2.00
2023-03-16T17:40:05.943Z,1.60
2023-03-16T17:42:13.356Z,1.80
2023-03-16T17:44:20.055Z,1.50
2023-03-16T17:46:25.574Z,1.30
2023-03-16T17:48:29.183Z,1.40
2023-03-16T17:50:32.322Z,1.67
2023-03-16T17:52:37.383Z,1.43
2023-03-16T17:54:40.230Z,1.30
2023-03-16T17:56:52.831Z,1.47
2023-03-16T17:58:58.175Z,1.47
2023-03-16T18:01:04.332Z,2.00
2023-03-16T18:03:13.722Z,1.50
2023-03-16T18:05:21.508Z,1.60
2023-03-16T18:07:24.565Z,1.67
2023-03-16T18:09:28.770Z,1.57
2023-03-16T18:11:35.611Z,2.07
2023-03-16T18:13:40.676Z,1.60
2023-03-16T18:15:44.437Z,1.60
2023-03-16T18:17:50.858Z,1.87
2023-03-16T18:19:54.713Z,1.53
2023-03-16T18:21:57.719Z,2.20
2023-03-16T18:24:02.790Z,1.90
2023-03-16T18:26:07.073Z,1.87
2023-03-16T18:28:11.110Z,2.10
2023-03-16T18:30:15.193Z,2.20
2023-03-16T18:32:23.015Z,1.93
2023-03-16T18:34:34.852Z,1.97
2023-03-16T18:36:38.301Z,2.20
2023-03-16T18:38:43.798Z,2.03
2023-03-16T18:40:47.601Z,1.70
2023-03-16T18:42:51.577Z,1.53
2023-03-16T18:44:54.803Z,1.87
2023-03-16T18:47:01.698Z,2.33
2023-03-16T18:49:06.465Z,2.00
2023-03-16T18:51:14.422Z,1.83
2023-03-16T18:53:19.901Z,2.27
2023-03-16T18:55:25.092Z,1.83
2023-03-16T18:57:29.562Z,2.63
2023-03-16T18:59:32.731Z,2.50
2023-03-16T19:01:38.323Z,2.20
2023-03-16T19:03:44.305Z,3.27
2023-03-16T19:05:47.341Z,2.10
2023-03-16T19:07:52.685Z,2.90
2023-03-16T19:09:55.659Z,3.10
2023-03-16T19:11:59.426Z,2.20
2023-03-16T19:14:04.530Z,2.80
2023-03-16T19:16:11.026Z,2.90
2023-03-16T19:18:14.117Z,2.80
2023-03-16T19:20:18.359Z,2.80
2023-03-16T19:22:21.877Z,2.60
2023-03-16T19:24:29.429Z,2.30
2023-03-16T19:26:33.781Z,2.20
2023-03-16T19:28:39.122Z,2.33
2023-03-16T19:30:42.990Z,2.73
2023-03-16T19:32:46.222Z,2.80
2023-03-16T19:34:49.466Z,2.80
2023-03-16T19:36:52.502Z,2.67
2023-03-16T19:38:55.506Z,2.57
2023-03-16T19:41:00.974Z,3.03
2023-03-16T19:43:03.837Z,2.83
2023-03-16T19:45:08.353Z,3.33
2023-03-16T19:47:24.483Z,2.60
2023-03-16T19:49:29.547Z,2.70
2023-03-16T19:51:32.874Z,2.77
2023-03-16T19:53:36.074Z,2.53
2023-03-16T19:55:38.981Z,2.57
2023-03-16T19:57:44.747Z,3.37
2023-03-16T19:59:50.269Z,3.10
2023-03-16T20:01:53.244Z,2.13
2023-03-16T20:03:56.661Z,2.67
2023-03-16T20:05:59.587Z,2.73
2023-03-16T20:08:02.544Z,2.40
2023-03-16T20:10:06.031Z,2.20
2023-03-16T20:12:15.499Z,2.00
2023-03-16T20:14:22.631Z,2.03
2023-03-16T20:16:28.403Z,1.70
2023-03-16T20:18:31.471Z,2.47
2023-03-16T20:20:37.650Z,2.13
2023-03-16T20:22:40.899Z,2.00
2023-03-16T20:24:45.229Z,2.13
2023-03-16T20:26:51.520Z,2.47
2023-03-16T20:28:54.889Z,2.23
2023-03-16T20:31:00.314Z,2.53
2023-03-16T20:33:03.639Z,2.33
2023-03-16T20:35:15.725Z,2.23
2023-03-16T20:37:23.926Z,2.03
2023-03-16T20:39:27.965Z,2.57
2023-03-16T20:41:32.863Z,2.07
2023-03-16T20:43:37.417Z,2.40
2023-03-16T20:45:40.633Z,2.30
2023-03-16T20:47:45.181Z,2.40
2023-03-16T20:49:48.814Z,2.20
2023-03-16T20:51:53.243Z,2.10
2023-03-16T20:53:56.244Z,3.23
2023-03-16T20:55:59.254Z,2.40
2023-03-16T20:58:02.815Z,2.73
2023-03-16T21:00:14.880Z,2.20
2023-03-16T21:02:27.111Z,2.63
2023-03-16T21:04:31.621Z,2.10
2023-03-16T21:06:34.807Z,2.10
2023-03-16T21:08:37.678Z,2.70
2023-03-16T21:10:40.895Z,2.33
2023-03-16T21:12:45.917Z,2.30
2023-03-16T21:14:48.947Z,2.63
2023-03-16T21:16:52.688Z,2.17
2023-03-16T21:18:55.953Z,2.43
2023-03-16T21:21:00.574Z,2.47
2023-03-16T21:23:03.914Z,2.50
2023-03-16T21:25:08.339Z,2.73
2023-03-16T21:27:18.084Z,2.80
2023-03-16T21:29:22.087Z,2.20
2023-03-16T21:31:27.076Z,2.53
2023-03-16T21:33:31.418Z,2.27
2023-03-16T21:35:36.795Z,2.10
2023-03-16T21:37:41.308Z,2.70
2023-03-16T21:39:45.045Z,2.23
2023-03-16T21:41:50.895Z,2.37
2023-03-16T21:43:54.709Z,2.40
2023-03-16T21:45:58.035Z,1.80
2023-03-16T21:48:01.316Z,1.70
2023-03-16T21:50:06.174Z,2.00
2023-03-16T21:52:21.901Z,2.30
2023-03-16T21:54:26.533Z,2.20
2023-03-16T21:56:29.695Z,2.30
2023-03-16T21:58:32.576Z,2.00
2023-03-16T22:00:35.469Z,1.63
2023-03-16T22:02:38.544Z,2.10
2023-03-16T22:04:41.597Z,1.70
2023-03-16T22:06:45.264Z,1.87
2023-03-16T22:08:49.261Z,1.83
2023-03-16T22:10:53.962Z,1.90
2023-03-16T22:12:58.030Z,1.67
2023-03-16T22:15:00.995Z,1.90
2023-03-16T22:17:04.300Z,1.70
2023-03-16T22:19:11.405Z,1.50
2023-03-16T22:21:23.537Z,1.80
2023-03-16T22:23:31.933Z,1.53
2023-03-16T22:25:34.812Z,1.63
2023-03-16T22:27:39.131Z,1.60
2023-03-16T22:29:44.512Z,1.77
2023-03-16T22:31:47.828Z,1.73
2023-03-16T22:33:51.413Z,1.50
2023-03-16T22:35:54.324Z,1.60
2023-03-16T22:37:58.891Z,1.23
2023-03-16T22:40:03.547Z,1.27
2023-03-16T22:42:23.786Z,1.80
2023-03-16T22:44:28.902Z,1.50
2023-03-16T22:46:31.949Z,1.03
2023-03-16T22:48:35.009Z,1.73
2023-03-16T22:50:38.058Z,2.90
2023-03-16T22:52:40.977Z,1.10
2023-03-16T22:54:44.264Z,1.50
2023-03-16T22:56:48.337Z,1.30
2023-03-16T22:58:53.045Z,1.20
2023-03-16T23:00:57.885Z,1.07
2023-03-16T23:03:00.805Z,1.33
2023-03-16T23:05:06.382Z,1.40
2023-03-16T23:07:11.747Z,1.03
2023-03-16T23:09:15.727Z,1.33
2023-03-16T23:11:22.365Z,1.50
2023-03-16T23:13:26.199Z,1.40
2023-03-16T23:15:31.651Z,1.40
2023-03-16T23:17:36.440Z,1.20
2023-03-16T23:19:39.588Z,1.30
2023-03-16T23:21:42.384Z,1.30
2023-03-16T23:23:53.962Z,1.60
2023-03-16T23:26:10.198Z,1.37
2023-03-16T23:28:14.100Z,1.60
2023-03-16T23:30:20.608Z,1.50
2023-03-16T23:32:23.592Z,1.27
2023-03-16T23:34:27.869Z,1.00
2023-03-16T23:36:30.753Z,0.90
2023-03-16T23:38:33.640Z,1.33
2023-03-16T23:40:38.378Z,1.50
2023-03-16T23:42:42.586Z,1.40
2023-03-16T23:44:45.597Z,1.00
2023-03-16T23:46:48.524Z,1.20
2023-03-16T23:48:52.345Z,1.30
2023-03-16T23:50:57.669Z,1.30
2023-03-16T23:53:00.615Z,1.13
2023-03-16T23:55:04.412Z,1.30
2023-03-16T23:57:07.659Z,1.47
2023-03-16T23:59:10.654Z,1.10
